createdAt,value
2023-01-20T00:01:47.886Z,101133.15
2023-01-20T00:04:15.618Z,101134.02
2023-01-20T00:06:42.910Z,101136.38
2023-01-20T00:09:14.391Z,101133.89
2023-01-20T00:11:41.643Z,101126.77
2023-01-20T00:14:09.445Z,101127.61
2023-01-20T00:16:36.580Z,101125.92
2023-01-20T00:19:03.890Z,101125.15
2023-01-20T00:21:31.151Z,101117.32
2023-01-20T00:23:58.374Z,101115.19
2023-01-20T00:26:25.772Z,101107.98
2023-01-20T00:28:56.265Z,101105.24
2023-01-20T00:31:28.430Z,101102.59
2023-01-20T00:33:57.673Z,101097.31
2023-01-20T00:36:25.488Z,101100.15
2023-01-20T00:38:52.687Z,101098.97
2023-01-20T00:41:19.927Z,101098.84
2023-01-20T00:43:47.315Z,101103.33
2023-01-20T00:46:14.494Z,101093.93
2023-01-20T00:48:41.749Z,101103.15
2023-01-20T00:51:09.465Z,101097.09
2023-01-20T00:53:36.832Z,101103.73
2023-01-20T00:56:04.461Z,101107.83
2023-01-20T00:58:31.674Z,101103.98
2023-01-20T01:00:59.208Z,101103.80
2023-01-20T01:03:28.304Z,101105.20
2023-01-20T01:05:55.634Z,101103.27
2023-01-20T01:08:22.791Z,101101.85
2023-01-20T01:10:49.972Z,101106.84
2023-01-20T01:13:16.995Z,101108.37
2023-01-20T01:15:50.309Z,101111.96
2023-01-20T01:18:17.767Z,101112.36
2023-01-20T01:20:45.323Z,101110.27
2023-01-20T01:23:12.927Z,101108.05
2023-01-20T01:25:40.135Z,101105.87
2023-01-20T01:28:07.401Z,101103.08
2023-01-20T01:30:34.699Z,101106.83
2023-01-20T01:33:01.995Z,101106.01
2023-01-20T01:35:29.269Z,101112.45
2023-01-20T01:37:56.498Z,101111.01
2023-01-20T01:40:23.652Z,101110.75
2023-01-20T01:42:50.872Z,101107.27
2023-01-20T01:45:23.015Z,101106.80
2023-01-20T01:48:02.667Z,101111.59
2023-01-20T01:50:40.154Z,101115.77
2023-01-20T01:53:07.622Z,101114.77
2023-01-20T01:55:36.905Z,101115.30
2023-01-20T01:58:04.176Z,101110.96
2023-01-20T02:00:31.395Z,101111.07
2023-01-20T02:02:58.574Z,101103.00
2023-01-20T02:05:26.132Z,101112.56
2023-01-20T02:07:53.500Z,101112.40
2023-01-20T02:10:20.679Z,101114.89
2023-01-20T02:12:49.753Z,101115.84
2023-01-20T02:15:18.373Z,101114.69
2023-01-20T02:18:01.398Z,101107.85
2023-01-20T02:20:54.876Z,101107.76
2023-01-20T02:23:35.566Z,101101.89
2023-01-20T02:26:24.830Z,101099.38
2023-01-20T02:28:52.209Z,101092.86
2023-01-20T02:31:25.826Z,101089.56
2023-01-20T02:33:59.088Z,101101.10
2023-01-20T02:36:51.784Z,101096.43
2023-01-20T02:39:29.204Z,101095.04
2023-01-20T02:42:08.962Z,101096.30
2023-01-20T02:44:44.613Z,101086.59
2023-01-20T02:47:13.373Z,101086.12
2023-01-20T02:49:55.321Z,101084.60
2023-01-20T02:52:31.553Z,101091.20
2023-01-20T02:55:02.016Z,101106.86
2023-01-20T02:57:32.246Z,101099.02
2023-01-20T03:00:04.204Z,101095.14
2023-01-20T03:02:31.518Z,101101.41
2023-01-20T03:05:02.243Z,101089.42
2023-01-20T03:07:29.902Z,101101.45
2023-01-20T03:09:58.001Z,101096.88
2023-01-20T03:12:29.647Z,101105.45
2023-01-20T03:14:56.802Z,101100.91
2023-01-20T03:17:23.989Z,101106.63
2023-01-20T03:19:51.056Z,101101.58
2023-01-20T03:22:18.211Z,101102.63
2023-01-20T03:24:45.408Z,101097.61
2023-01-20T03:27:12.632Z,101105.83
2023-01-20T03:29:39.845Z,101099.73
2023-01-20T03:32:08.702Z,101098.05
2023-01-20T03:34:36.829Z,101101.69
2023-01-20T03:37:04.109Z,101106.91
2023-01-20T03:39:32.067Z,101112.50
2023-01-20T03:42:11.210Z,101114.22
2023-01-20T03:44:38.368Z,101115.31
2023-01-20T03:47:28.674Z,101124.69
2023-01-20T03:50:07.979Z,101121.58
2023-01-20T03:52:47.629Z,101121.45
2023-01-20T03:55:23.468Z,101124.17
2023-01-20T03:58:12.379Z,101123.83
2023-01-20T04:00:44.084Z,101117.24
2023-01-20T04:03:31.242Z,101115.88
2023-01-20T04:06:02.828Z,101120.24
2023-01-20T04:08:32.223Z,101121.17
2023-01-20T04:11:00.237Z,101125.31
2023-01-20T04:13:29.481Z,101123.87
2023-01-20T04:15:56.740Z,101120.65
2023-01-20T04:18:23.956Z,101120.34
2023-01-20T04:20:59.422Z,101116.41
2023-01-20T04:23:40.188Z,101121.62
2023-01-20T04:26:07.344Z,101121.36
2023-01-20T04:28:34.354Z,101118.66
2023-01-20T04:31:01.813Z,101120.88
2023-01-20T04:33:29.004Z,101125.76
2023-01-20T04:35:56.198Z,101123.37
2023-01-20T04:38:23.406Z,101128.53
2023-01-20T04:40:50.550Z,101131.04
2023-01-20T04:43:19.228Z,101127.40
2023-01-20T04:45:46.383Z,101132.70
2023-01-20T04:48:13.643Z,101143.30
2023-01-20T04:50:41.351Z,101135.54
2023-01-20T04:53:13.984Z,101135.05
2023-01-20T04:55:41.108Z,101141.02
2023-01-20T04:58:10.164Z,101151.14
2023-01-20T05:00:37.439Z,101143.77
2023-01-20T05:03:06.526Z,101153.06
2023-01-20T05:05:33.761Z,101150.13
2023-01-20T05:08:01.072Z,101148.23
2023-01-20T05:10:28.245Z,101147.16
2023-01-20T05:12:55.467Z,101158.24
2023-01-20T05:15:23.140Z,101157.46
2023-01-20T05:17:50.305Z,101166.16
2023-01-20T05:20:19.287Z,101169.85
2023-01-20T05:22:47.930Z,101171.40
2023-01-20T05:25:15.556Z,101170.77
2023-01-20T05:27:43.117Z,101178.67
2023-01-20T05:30:11.487Z,101184.89
2023-01-20T05:32:38.761Z,101184.71
2023-01-20T05:35:08.750Z,101189.11
2023-01-20T05:37:35.976Z,101189.80
2023-01-20T05:40:03.837Z,101197.43
2023-01-20T05:42:33.073Z,101196.47
2023-01-20T05:45:00.264Z,101202.87
2023-01-20T05:47:27.446Z,101206.05
2023-01-20T05:49:54.711Z,101202.01
2023-01-20T05:52:21.968Z,101212.19
2023-01-20T05:54:49.198Z,101217.52
2023-01-20T05:57:18.565Z,101219.03
2023-01-20T05:59:49.869Z,101224.05
2023-01-20T06:02:18.959Z,101229.77
2023-01-20T06:04:46.863Z,101234.83
2023-01-20T06:07:14.722Z,101233.20
2023-01-20T06:09:42.036Z,101231.56
2023-01-20T06:12:09.318Z,101237.52
2023-01-20T06:14:36.963Z,101240.29
2023-01-20T06:17:04.170Z,101238.16
2023-01-20T06:19:33.989Z,101245.80
2023-01-20T06:22:01.166Z,101249.80
2023-01-20T06:24:28.444Z,101248.29
2023-01-20T06:26:55.717Z,101245.25
2023-01-20T06:29:22.944Z,101247.45
2023-01-20T06:31:50.276Z,101251.41
2023-01-20T06:34:17.475Z,101248.02
2023-01-20T06:36:44.733Z,101253.92
2023-01-20T06:39:12.024Z,101259.86
2023-01-20T06:41:39.251Z,101263.27
2023-01-20T06:44:06.427Z,101258.17
2023-01-20T06:46:33.679Z,101255.17
2023-01-20T06:49:01.146Z,101250.22
2023-01-20T06:51:29.616Z,101245.24
2023-01-20T06:53:57.050Z,101251.25
2023-01-20T06:56:24.413Z,101249.41
2023-01-20T06:58:52.216Z,101249.10
2023-01-20T07:01:25.200Z,101252.17
2023-01-20T07:03:52.738Z,101248.52
2023-01-20T07:06:25.926Z,101251.71
2023-01-20T07:08:53.245Z,101254.48
2023-01-20T07:11:20.492Z,101247.79
2023-01-20T07:13:48.103Z,101254.88
2023-01-20T07:16:16.783Z,101253.54
2023-01-20T07:18:44.817Z,101249.22
2023-01-20T07:21:12.309Z,101250.66
2023-01-20T07:23:39.521Z,101252.50
2023-01-20T07:26:08.496Z,101253.66
2023-01-20T07:28:35.837Z,101254.83
2023-01-20T07:31:07.763Z,101250.56
2023-01-20T07:33:35.225Z,101254.33
2023-01-20T07:36:02.657Z,101253.02
2023-01-20T07:38:29.999Z,101254.83
2023-01-20T07:40:58.857Z,101253.70
2023-01-20T07:43:26.248Z,101258.53
2023-01-20T07:45:57.630Z,101260.21
2023-01-20T07:48:25.915Z,101266.42
2023-01-20T07:51:05.826Z,101266.45
2023-01-20T07:53:37.092Z,101262.59
2023-01-20T07:56:06.060Z,101261.19
2023-01-20T07:58:33.562Z,101263.27
2023-01-20T08:01:18.004Z,101258.67
2023-01-20T08:03:45.393Z,101268.66
2023-01-20T08:06:14.231Z,101266.26
2023-01-20T08:08:41.448Z,101264.74
2023-01-20T08:11:09.334Z,101268.30
2023-01-20T08:13:36.839Z,101274.87
2023-01-20T08:16:06.669Z,101278.05
2023-01-20T08:18:34.127Z,101268.95
2023-01-20T08:21:02.178Z,101267.75
2023-01-20T08:23:29.375Z,101267.16
2023-01-20T08:26:02.172Z,101266.84
2023-01-20T08:28:30.149Z,101271.83
2023-01-20T08:31:24.032Z,101262.30
2023-01-20T08:33:55.567Z,101261.23
2023-01-20T08:36:25.013Z,101268.20
2023-01-20T08:38:52.396Z,101266.62
2023-01-20T08:41:25.184Z,101261.55
2023-01-20T08:43:52.416Z,101259.55
2023-01-20T08:46:19.826Z,101253.97
2023-01-20T08:48:48.311Z,101257.65
2023-01-20T08:51:18.616Z,101259.19
2023-01-20T08:53:46.098Z,101256.64
2023-01-20T08:56:13.485Z,101247.26
2023-01-20T08:58:40.679Z,101244.08
2023-01-20T09:01:10.950Z,101235.46
2023-01-20T09:03:38.414Z,101238.52
2023-01-20T09:06:06.837Z,101229.98
2023-01-20T09:08:34.276Z,101232.56
2023-01-20T09:11:05.722Z,101226.39
2023-01-20T09:13:32.989Z,101223.25
2023-01-20T09:16:00.317Z,101223.40
2023-01-20T09:18:27.783Z,101223.09
2023-01-20T09:20:57.844Z,101215.15
2023-01-20T09:23:25.571Z,101212.26
2023-01-20T09:25:52.959Z,101208.10
2023-01-20T09:28:20.339Z,101207.39
2023-01-20T09:30:47.889Z,101211.07
2023-01-20T09:33:15.290Z,101209.88
2023-01-20T09:35:42.522Z,101212.88
2023-01-20T09:38:28.453Z,101213.28
2023-01-20T09:41:20.940Z,101206.21
2023-01-20T09:43:57.225Z,101200.64
2023-01-20T09:46:41.346Z,101198.20
2023-01-20T09:49:33.830Z,101212.65
2023-01-20T09:52:32.659Z,101201.56
2023-01-20T09:55:03.481Z,101197.70
2023-01-20T09:57:33.697Z,101197.14
2023-01-20T10:00:04.450Z,101194.23
2023-01-20T10:02:35.526Z,101191.94
2023-01-20T10:05:08.443Z,101192.54
2023-01-20T10:07:35.691Z,101191.86
2023-01-20T10:10:02.908Z,101188.88
2023-01-20T10:12:42.963Z,101187.64
2023-01-20T10:15:15.197Z,101183.25
2023-01-20T10:17:48.441Z,101182.17
2023-01-20T10:20:39.606Z,101177.23
2023-01-20T10:23:15.855Z,101185.52
2023-01-20T10:26:13.444Z,101174.67
2023-01-20T10:29:02.992Z,101165.64
2023-01-20T10:31:37.533Z,101168.62
2023-01-20T10:34:22.990Z,101167.29
2023-01-20T10:36:59.590Z,101154.51
2023-01-20T10:39:31.717Z,101147.81
2023-01-20T10:42:09.198Z,101146.20
2023-01-20T10:44:36.523Z,101137.04
2023-01-20T10:47:26.440Z,101142.13
2023-01-20T10:50:06.738Z,101139.67
2023-01-20T10:52:36.947Z,101140.36
2023-01-20T10:55:10.349Z,101141.98
2023-01-20T10:57:38.627Z,101141.59
2023-01-20T11:00:08.409Z,101135.89
2023-01-20T11:02:38.084Z,101138.00
2023-01-20T11:05:20.540Z,101140.44
2023-01-20T11:07:47.701Z,101140.63
2023-01-20T11:10:25.933Z,101132.84
2023-01-20T11:12:57.579Z,101125.55
2023-01-20T11:15:31.182Z,101127.57
2023-01-20T11:18:21.127Z,101128.17
2023-01-20T11:20:50.917Z,101127.39
2023-01-20T11:23:38.371Z,101125.17
2023-01-20T11:26:26.905Z,101119.45
2023-01-20T11:29:02.541Z,101124.33
2023-01-20T11:31:56.782Z,101120.81
2023-01-20T11:34:23.967Z,101121.91
2023-01-20T11:36:52.112Z,101124.89
2023-01-20T11:39:31.029Z,101126.85
2023-01-20T11:42:10.648Z,101116.27
2023-01-20T11:44:47.357Z,101111.26
2023-01-20T11:47:31.515Z,101111.35
2023-01-20T11:50:05.093Z,101112.08
2023-01-20T11:52:33.544Z,101111.52
2023-01-20T11:55:14.362Z,101112.08
2023-01-20T11:57:51.683Z,101117.40
2023-01-20T12:00:19.008Z,101110.39
2023-01-20T12:03:00.161Z,101112.39
2023-01-20T12:05:44.147Z,101117.52
2023-01-20T12:08:13.615Z,101119.88
2023-01-20T12:10:40.927Z,101121.52
2023-01-20T12:13:17.268Z,101120.83
2023-01-20T12:15:46.314Z,101120.94
2023-01-20T12:18:24.423Z,101120.73
2023-01-20T12:21:18.362Z,101120.33
2023-01-20T12:24:03.764Z,101125.20
2023-01-20T12:26:32.538Z,101122.30
2023-01-20T12:29:05.839Z,101124.17
2023-01-20T12:31:33.279Z,101121.80
2023-01-20T12:34:05.689Z,101121.17
2023-01-20T12:36:38.972Z,101126.55
2023-01-20T12:39:15.445Z,101118.93
2023-01-20T12:42:03.055Z,101124.35
2023-01-20T12:44:38.923Z,101119.73
2023-01-20T12:47:14.696Z,101116.67
2023-01-20T12:50:11.210Z,101118.64
2023-01-20T12:53:03.377Z,101111.64
2023-01-20T12:55:30.874Z,101107.81
2023-01-20T12:58:20.542Z,101108.20
2023-01-20T13:00:54.327Z,101113.87
2023-01-20T13:03:51.156Z,101109.38
2023-01-20T13:06:19.947Z,101113.20
2023-01-20T13:09:16.411Z,101112.10
2023-01-20T13:12:09.994Z,101117.78
2023-01-20T13:14:45.711Z,101117.72
2023-01-20T13:17:42.654Z,101120.65
2023-01-20T13:20:23.639Z,101114.08
2023-01-20T13:22:50.973Z,101114.20
2023-01-20T13:25:19.303Z,101116.55
2023-01-20T13:27:47.473Z,101116.01
2023-01-20T13:30:37.585Z,101110.06
2023-01-20T13:33:13.925Z,101116.89
2023-01-20T13:35:43.102Z,101115.34
2023-01-20T13:38:30.987Z,101125.68
2023-01-20T13:41:03.532Z,101124.15
2023-01-20T13:43:46.296Z,101126.73
2023-01-20T13:46:15.350Z,101119.42
2023-01-20T13:49:12.519Z,101119.30
2023-01-20T13:51:39.707Z,101123.77
2023-01-20T13:54:29.071Z,101132.71
2023-01-20T13:57:23.973Z,101131.21
2023-01-20T13:59:51.560Z,101128.11
2023-01-20T14:02:23.809Z,101123.23
2023-01-20T14:04:51.074Z,101121.98
2023-01-20T14:07:25.723Z,101123.83
2023-01-20T14:09:54.622Z,101128.82
2023-01-20T14:12:22.092Z,101121.42
2023-01-20T14:14:50.551Z,101127.42
2023-01-20T14:17:19.263Z,101126.80
2023-01-20T14:19:48.258Z,101121.44
2023-01-20T14:22:30.320Z,101120.34
2023-01-20T14:24:59.181Z,101126.64
2023-01-20T14:27:42.190Z,101120.84
2023-01-20T14:30:28.484Z,101123.67
2023-01-20T14:32:55.797Z,101121.30
2023-01-20T14:35:27.982Z,101123.30
2023-01-20T14:37:55.228Z,101126.52
2023-01-20T14:40:26.567Z,101128.79
2023-01-20T14:43:16.057Z,101133.40
2023-01-20T14:45:45.505Z,101133.53
2023-01-20T14:48:24.686Z,101136.68
2023-01-20T14:51:02.884Z,101140.36
2023-01-20T14:53:30.130Z,101148.23
2023-01-20T14:56:01.336Z,101140.70
2023-01-20T14:58:30.801Z,101144.23
2023-01-20T15:01:01.040Z,101146.00
2023-01-20T15:03:28.715Z,101146.06
2023-01-20T15:05:58.649Z,101140.44
2023-01-20T15:08:35.685Z,101144.69
2023-01-20T15:11:31.612Z,101139.75
2023-01-20T15:14:01.875Z,101146.52
2023-01-20T15:16:30.625Z,101152.30
2023-01-20T15:19:17.010Z,101152.43
2023-01-20T15:21:44.610Z,101151.30
2023-01-20T15:24:20.916Z,101157.27
2023-01-20T15:26:50.090Z,101154.82
2023-01-20T15:29:26.726Z,101153.48
2023-01-20T15:31:55.276Z,101154.23
2023-01-20T15:34:23.354Z,101158.73
2023-01-20T15:36:51.505Z,101156.57
2023-01-20T15:39:20.882Z,101154.30
2023-01-20T15:41:48.968Z,101151.60
2023-01-20T15:44:16.342Z,101156.22
2023-01-20T15:46:43.484Z,101153.94
2023-01-20T15:49:15.358Z,101158.29
2023-01-20T15:51:45.449Z,101163.16
2023-01-20T15:54:13.950Z,101159.64
2023-01-20T15:56:42.115Z,101167.92
2023-01-20T15:59:13.328Z,101169.36
2023-01-20T16:01:40.650Z,101167.23
2023-01-20T16:04:07.923Z,101174.85
2023-01-20T16:06:35.371Z,101175.63
2023-01-20T16:09:03.726Z,101173.29
2023-01-20T16:11:30.927Z,101172.61
2023-01-20T16:13:58.235Z,101168.73
2023-01-20T16:16:28.737Z,101174.33
2023-01-20T16:18:56.785Z,101173.02
2023-01-20T16:21:24.125Z,101174.46
2023-01-20T16:23:51.281Z,101176.15
2023-01-20T16:26:27.227Z,101173.85
2023-01-20T16:28:56.223Z,101172.00
2023-01-20T16:31:24.735Z,101168.98
2023-01-20T16:33:52.892Z,101173.91
2023-01-20T16:36:21.055Z,101174.80
2023-01-20T16:38:48.606Z,101175.24
2023-01-20T16:41:17.322Z,101170.58
2023-01-20T16:43:44.596Z,101168.16
2023-01-20T16:46:14.127Z,101168.97
2023-01-20T16:48:41.417Z,101165.35
2023-01-20T16:51:12.724Z,101167.69
2023-01-20T16:53:40.166Z,101162.92
2023-01-20T16:56:15.044Z,101163.45
2023-01-20T16:58:43.172Z,101168.04
2023-01-20T17:01:13.389Z,101164.09
2023-01-20T17:03:41.616Z,101167.34
2023-01-20T17:06:13.244Z,101159.45
2023-01-20T17:08:45.329Z,101156.02
2023-01-20T17:11:18.132Z,101155.92
2023-01-20T17:13:45.429Z,101147.80
2023-01-20T17:16:12.616Z,101150.53
2023-01-20T17:18:44.951Z,101147.37
2023-01-20T17:21:12.904Z,101153.70
2023-01-20T17:23:40.734Z,101151.92
2023-01-20T17:26:08.528Z,101151.02
2023-01-20T17:28:35.885Z,101150.02
2023-01-20T17:31:04.317Z,101150.88
2023-01-20T17:33:31.789Z,101155.50
2023-01-20T17:36:00.903Z,101153.36
2023-01-20T17:38:28.911Z,101158.61
2023-01-20T17:41:04.093Z,101157.86
2023-01-20T17:43:33.052Z,101164.30
2023-01-20T17:46:00.740Z,101159.39
2023-01-20T17:48:28.180Z,101157.96
2023-01-20T17:50:59.575Z,101159.05
2023-01-20T17:53:27.038Z,101154.84
2023-01-20T17:56:06.658Z,101153.06
2023-01-20T17:58:38.466Z,101160.67
2023-01-20T18:01:13.677Z,101155.83
2023-01-20T18:03:42.976Z,101153.20
2023-01-20T18:06:11.634Z,101145.80
2023-01-20T18:08:38.878Z,101142.17
2023-01-20T18:11:15.357Z,101145.60
2023-01-20T18:13:42.722Z,101144.90
2023-01-20T18:16:11.941Z,101141.23
2023-01-20T18:18:40.058Z,101146.31
2023-01-20T18:21:13.942Z,101134.88
2023-01-20T18:23:41.347Z,101132.12
2023-01-20T18:26:09.837Z,101131.94
2023-01-20T18:28:37.093Z,101135.42
2023-01-20T18:31:10.235Z,101128.17
2023-01-20T18:33:40.529Z,101136.37
2023-01-20T18:36:09.173Z,101126.41
2023-01-20T18:38:36.898Z,101131.05
2023-01-20T18:41:04.145Z,101133.91
2023-01-20T18:43:32.567Z,101131.62
2023-01-20T18:45:59.800Z,101144.27
2023-01-20T18:48:27.102Z,101136.62
2023-01-20T18:51:00.032Z,101140.64
2023-01-20T18:53:30.558Z,101143.31
2023-01-20T18:56:01.934Z,101146.89
2023-01-20T18:58:29.253Z,101141.56
2023-01-20T19:01:08.206Z,101140.54
2023-01-20T19:03:35.527Z,101139.95
2023-01-20T19:06:08.461Z,101138.05
2023-01-20T19:08:35.545Z,101137.02
2023-01-20T19:11:04.645Z,101139.26
2023-01-20T19:13:32.286Z,101142.37
2023-01-20T19:15:59.591Z,101138.88
2023-01-20T19:18:26.885Z,101141.94
2023-01-20T19:20:54.178Z,101142.45
2023-01-20T19:23:21.760Z,101147.56
2023-01-20T19:25:49.715Z,101143.09
2023-01-20T19:28:18.371Z,101142.79
2023-01-20T19:30:45.668Z,101140.19
2023-01-20T19:33:13.067Z,101134.71
2023-01-20T19:35:42.081Z,101144.13
2023-01-20T19:38:09.501Z,101142.04
2023-01-20T19:40:36.666Z,101140.02
2023-01-20T19:43:03.995Z,101137.90
2023-01-20T19:45:44.903Z,101137.91
2023-01-20T19:48:12.969Z,101131.64
2023-01-20T19:50:40.317Z,101130.86
2023-01-20T19:53:07.569Z,101122.57
2023-01-20T19:55:34.887Z,101118.30
2023-01-20T19:58:05.158Z,101125.99
2023-01-20T20:00:32.439Z,101118.38
2023-01-20T20:03:03.302Z,101113.32
2023-01-20T20:05:33.099Z,101114.02
2023-01-20T20:08:00.931Z,101115.65
2023-01-20T20:10:28.225Z,101110.95
2023-01-20T20:12:57.815Z,101114.41
2023-01-20T20:15:25.062Z,101108.34
2023-01-20T20:17:55.063Z,101107.23
2023-01-20T20:20:22.351Z,101109.67
2023-01-20T20:22:49.594Z,101107.52
2023-01-20T20:25:16.960Z,101118.88
2023-01-20T20:27:44.248Z,101116.10
2023-01-20T20:30:11.908Z,101111.52
2023-01-20T20:32:39.207Z,101108.84
2023-01-20T20:35:06.927Z,101110.26
2023-01-20T20:37:34.216Z,101112.57
2023-01-20T20:40:01.531Z,101112.42
2023-01-20T20:42:28.897Z,101113.33
2023-01-20T20:44:56.646Z,101115.34
2023-01-20T20:47:26.304Z,101109.38
2023-01-20T20:49:54.508Z,101110.23
2023-01-20T20:52:22.040Z,101108.73
2023-01-20T20:54:49.835Z,101104.80
2023-01-20T20:57:16.995Z,101104.63
2023-01-20T20:59:58.232Z,101108.21
2023-01-20T21:02:26.124Z,101111.53
2023-01-20T21:04:53.545Z,101109.25
2023-01-20T21:07:20.851Z,101108.27
2023-01-20T21:09:48.202Z,101112.98
2023-01-20T21:12:15.471Z,101112.45
2023-01-20T21:14:43.524Z,101111.64
2023-01-20T21:17:10.782Z,101110.14
2023-01-20T21:19:37.946Z,101110.69
2023-01-20T21:22:06.273Z,101111.22
2023-01-20T21:24:33.543Z,101111.38
2023-01-20T21:27:00.850Z,101109.77
2023-01-20T21:29:28.163Z,101111.18
2023-01-20T21:31:55.513Z,101111.28
2023-01-20T21:34:22.835Z,101118.80
2023-01-20T21:36:50.044Z,101115.40
2023-01-20T21:39:17.730Z,101119.17
2023-01-20T21:41:45.090Z,101117.56
2023-01-20T21:44:33.104Z,101112.71
2023-01-20T21:47:04.542Z,101121.43
2023-01-20T21:49:50.466Z,101117.61
2023-01-20T21:52:38.409Z,101118.88
2023-01-20T21:55:06.315Z,101118.73
2023-01-20T21:57:33.579Z,101116.91
2023-01-20T22:00:01.135Z,101117.73
2023-01-20T22:02:39.554Z,101117.67
2023-01-20T22:05:07.326Z,101117.98
2023-01-20T22:07:35.513Z,101122.17
2023-01-20T22:10:03.164Z,101122.06
2023-01-20T22:12:34.031Z,101124.91
2023-01-20T22:15:03.245Z,101115.09
2023-01-20T22:17:30.754Z,101108.90
2023-01-20T22:19:58.032Z,101114.07
2023-01-20T22:22:25.289Z,101108.66
2023-01-20T22:24:53.418Z,101112.26
2023-01-20T22:27:20.922Z,101109.39
2023-01-20T22:29:48.234Z,101106.89
2023-01-20T22:32:15.522Z,101111.02
2023-01-20T22:34:42.759Z,101105.20
2023-01-20T22:37:09.978Z,101106.64
2023-01-20T22:39:37.129Z,101115.38
2023-01-20T22:42:04.563Z,101115.23
2023-01-20T22:44:31.880Z,101121.30
2023-01-20T22:46:59.109Z,101120.17
2023-01-20T22:49:26.482Z,101119.16
2023-01-20T22:51:55.175Z,101117.59
2023-01-20T22:54:22.465Z,101117.23
2023-01-20T22:56:49.623Z,101113.67
2023-01-20T22:59:16.886Z,101114.33
2023-01-20T23:01:44.003Z,101112.09
2023-01-20T23:04:11.607Z,101112.36
2023-01-20T23:06:39.550Z,101114.16
2023-01-20T23:09:08.932Z,101108.38
2023-01-20T23:11:38.447Z,101112.09
2023-01-20T23:14:06.587Z,101109.48
2023-01-20T23:16:33.956Z,101120.75
2023-01-20T23:19:01.280Z,101117.23
2023-01-20T23:21:28.565Z,101120.83
2023-01-20T23:23:56.062Z,101121.48
2023-01-20T23:26:25.039Z,101133.46
2023-01-20T23:28:53.889Z,101128.48
2023-01-20T23:31:21.896Z,101130.46
2023-01-20T23:33:49.295Z,101138.96
2023-01-20T23:36:21.449Z,101133.98
2023-01-20T23:38:48.807Z,101138.20
2023-01-20T23:41:16.527Z,101130.08
2023-01-20T23:43:44.902Z,101130.21
2023-01-20T23:46:12.196Z,101131.35
2023-01-20T23:48:39.515Z,101123.23
2023-01-20T23:51:07.235Z,101116.73
2023-01-20T23:53:37.844Z,101115.50
2023-01-20T23:56:07.071Z,101113.86
2023-01-20T23:58:34.255Z,101112.02
